createdAt,value
2018-09-27T00:02:07.914Z,6.20
2018-09-27T00:04:37.085Z,5.90
2018-09-27T00:07:06.510Z,7.50
2018-09-27T00:09:35.674Z,7.33
2018-09-27T00:12:05.135Z,6.83
2018-09-27T00:14:34.294Z,7.70
2018-09-27T00:17:03.427Z,6.30
2018-09-27T00:19:33.159Z,6.23
2018-09-27T00:22:02.409Z,5.97
2018-09-27T00:24:31.558Z,6.40
2018-09-27T00:27:00.732Z,6.83
2018-09-27T00:29:29.838Z,6.00
2018-09-27T00:31:58.995Z,7.00
2018-09-27T00:34:34.646Z,6.33
2018-09-27T00:37:04.017Z,6.37
2018-09-27T00:39:33.155Z,5.43
2018-09-27T00:42:02.281Z,6.17
2018-09-27T00:44:31.814Z,6.40
2018-09-27T00:47:01.643Z,5.70
2018-09-27T00:49:30.842Z,5.60
2018-09-27T00:51:59.961Z,6.37
2018-09-27T00:54:29.477Z,5.93
2018-09-27T00:56:58.638Z,6.63
2018-09-27T00:59:27.969Z,6.50
2018-09-27T01:01:58.248Z,7.47
2018-09-27T01:04:27.730Z,6.13
2018-09-27T01:06:56.908Z,6.00
2018-09-27T01:09:26.922Z,5.20
2018-09-27T01:11:56.066Z,6.07
2018-09-27T01:14:25.441Z,6.13
2018-09-27T01:16:54.610Z,6.20
2018-09-27T01:19:23.791Z,6.50
2018-09-27T01:21:53.028Z,7.07
2018-09-27T01:24:22.164Z,8.57
2018-09-27T01:26:51.346Z,5.90
2018-09-27T01:29:20.494Z,6.33
2018-09-27T01:31:49.691Z,7.10
2018-09-27T01:34:18.805Z,5.20
2018-09-27T01:36:48.711Z,7.40
2018-09-27T01:39:17.946Z,6.90
2018-09-27T01:41:47.062Z,6.50
2018-09-27T01:44:16.182Z,7.07
2018-09-27T01:46:45.984Z,7.03
2018-09-27T01:49:15.646Z,6.27
2018-09-27T01:51:44.907Z,7.00
2018-09-27T01:54:14.248Z,6.10
2018-09-27T01:56:43.846Z,5.80
2018-09-27T01:59:13.210Z,6.50
2018-09-27T02:01:42.338Z,6.33
2018-09-27T02:04:11.526Z,6.30
2018-09-27T02:06:41.166Z,7.13
2018-09-27T02:09:10.855Z,5.90
2018-09-27T02:11:40.163Z,6.97
2018-09-27T02:14:10.899Z,5.63
2018-09-27T02:16:40.815Z,6.43
2018-09-27T02:19:10.015Z,6.53
2018-09-27T02:21:39.266Z,6.70
2018-09-27T02:24:08.531Z,5.63
2018-09-27T02:26:37.749Z,6.53
2018-09-27T02:29:07.229Z,7.03
2018-09-27T02:31:36.478Z,6.73
2018-09-27T02:34:05.917Z,7.60
2018-09-27T02:36:35.141Z,6.80
2018-09-27T02:39:06.810Z,6.40
2018-09-27T02:41:35.936Z,5.90
2018-09-27T02:44:05.173Z,6.87
2018-09-27T02:46:34.365Z,6.43
2018-09-27T02:49:03.977Z,7.00
2018-09-27T02:51:33.123Z,6.50
2018-09-27T02:54:02.254Z,7.03
2018-09-27T02:56:31.974Z,6.70
2018-09-27T02:59:01.114Z,7.03
2018-09-27T03:01:30.254Z,7.70
2018-09-27T03:03:59.386Z,7.40
2018-09-27T03:06:28.566Z,6.80
2018-09-27T03:08:57.698Z,7.90
2018-09-27T03:11:26.919Z,5.90
2018-09-27T03:13:56.286Z,6.77
2018-09-27T03:16:25.374Z,6.80
2018-09-27T03:18:54.558Z,7.00
2018-09-27T03:21:23.767Z,6.00
2018-09-27T03:23:52.906Z,6.20
2018-09-27T03:26:22.122Z,5.63
2018-09-27T03:28:51.322Z,6.90
2018-09-27T03:31:20.557Z,6.37
2018-09-27T03:33:49.922Z,5.73
2018-09-27T03:36:19.272Z,6.73
2018-09-27T03:38:48.646Z,7.00
2018-09-27T03:41:18.273Z,6.23
2018-09-27T03:43:47.632Z,6.83
2018-09-27T03:46:16.821Z,6.93
2018-09-27T03:48:46.147Z,6.73
2018-09-27T03:51:15.306Z,7.97
2018-09-27T03:53:44.518Z,7.00
2018-09-27T03:56:13.707Z,6.60
2018-09-27T03:58:42.863Z,6.73
2018-09-27T04:01:12.034Z,7.10
2018-09-27T04:03:41.205Z,7.80
2018-09-27T04:06:10.758Z,8.00
2018-09-27T04:08:39.910Z,7.73
2018-09-27T04:11:09.085Z,8.53
2018-09-27T04:13:38.362Z,8.70
2018-09-27T04:16:07.531Z,9.20
2018-09-27T04:18:36.813Z,9.77
2018-09-27T04:21:05.958Z,10.60
2018-09-27T04:23:35.110Z,10.47
2018-09-27T04:26:04.363Z,10.57
2018-09-27T04:28:33.486Z,8.40
2018-09-27T04:31:02.654Z,7.60
2018-09-27T04:33:31.902Z,8.90
2018-09-27T04:36:01.078Z,8.90
2018-09-27T04:38:34.221Z,7.60
2018-09-27T04:41:04.157Z,9.23
2018-09-27T04:43:33.270Z,8.97
2018-09-27T04:46:02.447Z,9.30
2018-09-27T04:48:32.044Z,10.10
2018-09-27T04:51:01.475Z,9.70
2018-09-27T04:53:30.684Z,9.43
2018-09-27T04:56:00.035Z,9.60
2018-09-27T04:58:29.293Z,11.23
2018-09-27T05:00:58.558Z,8.97
2018-09-27T05:03:28.640Z,10.47
2018-09-27T05:06:00.566Z,9.90
2018-09-27T05:08:30.263Z,10.40
2018-09-27T05:11:00.633Z,13.03
2018-09-27T05:13:30.037Z,11.20
2018-09-27T05:15:59.332Z,9.90
2018-09-27T05:18:28.737Z,9.10
2018-09-27T05:20:57.941Z,7.33
2018-09-27T05:23:27.161Z,9.53
2018-09-27T05:25:56.419Z,7.90
2018-09-27T05:28:25.654Z,8.93
2018-09-27T05:30:54.857Z,8.13
2018-09-27T05:33:24.076Z,8.23
2018-09-27T05:35:53.322Z,8.17
2018-09-27T05:38:22.596Z,8.50
2018-09-27T05:40:51.802Z,8.70
2018-09-27T05:43:20.990Z,8.30
2018-09-27T05:45:50.185Z,9.50
2018-09-27T05:48:19.872Z,9.03
2018-09-27T05:50:49.214Z,7.70
2018-09-27T05:53:18.575Z,10.23
2018-09-27T05:55:48.649Z,9.33
2018-09-27T05:58:18.362Z,10.60
2018-09-27T06:00:47.716Z,10.77
2018-09-27T06:03:17.697Z,12.33
2018-09-27T06:05:47.026Z,10.43
2018-09-27T06:08:16.494Z,15.00
2018-09-27T06:10:48.309Z,10.40
2018-09-27T06:13:17.639Z,8.73
2018-09-27T06:15:47.637Z,7.43
2018-09-27T06:18:17.046Z,11.37
2018-09-27T06:20:46.812Z,8.40
2018-09-27T06:23:16.035Z,8.37
2018-09-27T06:25:45.504Z,6.47
2018-09-27T06:28:14.813Z,5.23
2018-09-27T06:30:44.669Z,7.27
2018-09-27T06:33:14.347Z,6.90
2018-09-27T06:35:43.634Z,5.70
2018-09-27T06:38:12.925Z,4.87
2018-09-27T06:40:42.186Z,5.13
2018-09-27T06:43:11.433Z,5.77
2018-09-27T06:45:40.690Z,7.17
2018-09-27T06:48:10.794Z,5.40
2018-09-27T06:50:40.877Z,5.63
2018-09-27T06:53:10.986Z,5.93
2018-09-27T06:55:44.449Z,6.13
2018-09-27T06:58:14.662Z,5.30
2018-09-27T07:00:44.129Z,6.03
2018-09-27T07:03:14.081Z,6.00
2018-09-27T07:05:43.859Z,6.20
2018-09-27T07:08:15.174Z,5.50
2018-09-27T07:10:44.593Z,6.03
2018-09-27T07:13:14.517Z,5.93
2018-09-27T07:16:14.932Z,7.37
2018-09-27T07:18:45.549Z,6.47
2018-09-27T07:21:14.896Z,6.40
2018-09-27T07:23:45.406Z,6.30
2018-09-27T07:26:15.268Z,6.43
2018-09-27T07:28:44.739Z,6.60
2018-09-27T07:31:14.268Z,6.90
2018-09-27T07:33:43.454Z,7.20
2018-09-27T07:36:12.974Z,6.77
2018-09-27T07:38:42.038Z,6.80
2018-09-27T07:41:11.765Z,7.20
2018-09-27T07:43:41.634Z,7.43
2018-09-27T07:46:10.556Z,7.20
2018-09-27T07:48:40.589Z,7.30
2018-09-27T07:51:11.298Z,6.13
2018-09-27T07:53:40.502Z,7.10
2018-09-27T07:56:09.910Z,7.13
2018-09-27T07:58:39.186Z,6.77
2018-09-27T08:01:08.659Z,6.70
2018-09-27T08:03:39.487Z,7.20
2018-09-27T08:06:09.440Z,7.33
2018-09-27T08:08:39.260Z,7.30
2018-09-27T08:11:08.797Z,7.27
2018-09-27T08:13:38.604Z,7.07
2018-09-27T08:16:08.609Z,7.13
2018-09-27T08:18:38.481Z,6.73
2018-09-27T08:21:08.572Z,7.00
2018-09-27T08:23:37.673Z,6.60
2018-09-27T08:26:07.286Z,7.67
2018-09-27T08:28:36.499Z,7.23
2018-09-27T08:31:05.717Z,7.10
2018-09-27T08:33:34.866Z,8.10
2018-09-27T08:36:04.171Z,7.10
2018-09-27T08:38:34.764Z,7.90
2018-09-27T08:41:04.617Z,7.00
2018-09-27T08:43:33.765Z,6.90
2018-09-27T08:46:03.059Z,6.30
2018-09-27T08:48:32.290Z,7.80
2018-09-27T08:51:01.740Z,7.03
2018-09-27T08:53:31.167Z,6.70
2018-09-27T08:56:01.523Z,6.63
2018-09-27T08:58:30.565Z,8.03
2018-09-27T09:00:59.750Z,7.63
2018-09-27T09:03:29.130Z,6.93
2018-09-27T09:05:58.477Z,6.77
2018-09-27T09:08:33.982Z,6.77
2018-09-27T09:11:03.183Z,7.80
2018-09-27T09:13:32.418Z,6.63
2018-09-27T09:16:01.902Z,6.77
2018-09-27T09:18:31.137Z,8.17
2018-09-27T09:21:01.388Z,6.73
2018-09-27T09:23:35.215Z,7.40
2018-09-27T09:26:05.271Z,6.90
2018-09-27T09:28:34.724Z,7.50
2018-09-27T09:31:03.869Z,8.07
2018-09-27T09:33:33.110Z,7.37
2018-09-27T09:36:02.385Z,7.00
2018-09-27T09:38:31.550Z,6.63
2018-09-27T09:41:00.862Z,7.80
2018-09-27T09:43:30.065Z,7.10
2018-09-27T09:45:59.678Z,5.87
2018-09-27T09:48:28.905Z,7.17
2018-09-27T09:50:58.168Z,7.20
2018-09-27T09:53:27.060Z,7.63
2018-09-27T09:55:56.533Z,8.10
2018-09-27T09:58:26.193Z,7.87
2018-09-27T10:00:55.602Z,7.03
2018-09-27T10:03:24.933Z,7.70
2018-09-27T10:05:54.242Z,7.73
2018-09-27T10:08:23.125Z,6.30
2018-09-27T10:10:52.877Z,6.60
2018-09-27T10:13:22.817Z,7.70
2018-09-27T10:15:52.193Z,7.20
2018-09-27T10:18:21.957Z,7.67
2018-09-27T10:20:51.381Z,6.50
2018-09-27T10:23:20.590Z,6.10
2018-09-27T10:25:49.777Z,7.20
2018-09-27T10:28:19.018Z,7.03
2018-09-27T10:30:48.222Z,8.03
2018-09-27T10:33:17.429Z,7.30
2018-09-27T10:35:46.637Z,8.30
2018-09-27T10:38:15.965Z,7.40
2018-09-27T10:40:45.482Z,7.27
2018-09-27T10:43:14.985Z,8.37
2018-09-27T10:45:44.266Z,6.93
2018-09-27T10:48:14.140Z,7.40
2018-09-27T10:50:43.550Z,6.77
2018-09-27T10:53:12.932Z,7.40
2018-09-27T10:55:42.374Z,6.73
2018-09-27T10:58:11.538Z,6.80
2018-09-27T11:00:40.669Z,7.13
2018-09-27T11:03:09.846Z,7.83
2018-09-27T11:05:39.295Z,7.20
2018-09-27T11:08:08.131Z,7.17
2018-09-27T11:10:37.798Z,6.27
2018-09-27T11:13:07.022Z,6.67
2018-09-27T11:15:36.202Z,6.50
2018-09-27T11:18:06.655Z,6.00
2018-09-27T11:20:35.823Z,6.27
2018-09-27T11:23:05.034Z,6.50
2018-09-27T11:25:34.202Z,6.10
2018-09-27T11:28:03.338Z,6.57
2018-09-27T11:30:33.753Z,6.27
2018-09-27T11:33:02.979Z,6.00
2018-09-27T11:35:32.130Z,6.23
2018-09-27T11:38:01.315Z,5.83
2018-09-27T11:40:30.493Z,6.00
2018-09-27T11:42:59.735Z,6.67
2018-09-27T11:45:28.942Z,5.60
2018-09-27T11:47:58.337Z,5.67
2018-09-27T11:50:29.067Z,6.47
2018-09-27T11:52:58.691Z,5.30
2018-09-27T11:55:27.822Z,5.60
2018-09-27T11:57:57.134Z,5.23
2018-09-27T12:00:26.300Z,4.60
2018-09-27T12:02:55.466Z,5.23
2018-09-27T12:05:25.359Z,5.60
2018-09-27T12:07:54.759Z,5.70
2018-09-27T12:10:24.267Z,6.10
2018-09-27T12:12:53.396Z,6.20
2018-09-27T12:15:22.585Z,5.40
2018-09-27T12:17:51.802Z,5.17
2018-09-27T12:20:21.043Z,4.50
2018-09-27T12:22:50.317Z,5.20
2018-09-27T12:25:19.647Z,5.63
2018-09-27T12:27:48.813Z,4.10
2018-09-27T12:30:17.948Z,4.47
2018-09-27T12:32:47.097Z,4.10
2018-09-27T12:35:16.306Z,4.10
2018-09-27T12:37:45.942Z,4.27
2018-09-27T12:40:15.078Z,4.40
2018-09-27T12:42:44.349Z,5.10
2018-09-27T12:45:14.763Z,5.23
2018-09-27T12:47:45.301Z,4.00
2018-09-27T12:50:14.822Z,4.33
2018-09-27T12:52:44.240Z,4.13
2018-09-27T12:55:13.793Z,3.67
2018-09-27T12:57:45.785Z,3.70
2018-09-27T13:00:15.166Z,3.40
2018-09-27T13:02:44.646Z,3.30
2018-09-27T13:05:13.954Z,3.40
2018-09-27T13:07:42.908Z,2.73
2018-09-27T13:10:12.121Z,2.50
2018-09-27T13:12:41.328Z,2.50
2018-09-27T13:15:10.604Z,2.67
2018-09-27T13:17:39.725Z,2.57
2018-09-27T13:20:09.420Z,2.70
2018-09-27T13:22:39.075Z,2.27
2018-09-27T13:25:08.379Z,2.10
2018-09-27T13:27:37.603Z,1.90
2018-09-27T13:30:06.789Z,2.47
2018-09-27T13:32:36.086Z,2.47
2018-09-27T13:35:05.221Z,2.50
2018-09-27T13:37:34.379Z,3.10
2018-09-27T13:40:03.655Z,2.17
2018-09-27T13:42:32.754Z,2.10
2018-09-27T13:45:03.148Z,2.10
2018-09-27T13:47:32.260Z,2.60
2018-09-27T13:50:01.400Z,2.60
2018-09-27T13:52:31.324Z,2.23
2018-09-27T13:55:00.483Z,2.57
2018-09-27T13:57:29.657Z,2.20
2018-09-27T13:59:58.862Z,2.70
2018-09-27T14:02:27.657Z,2.60
2018-09-27T14:04:57.032Z,2.53
2018-09-27T14:07:26.161Z,2.60
2018-09-27T14:09:55.304Z,2.77
2018-09-27T14:12:25.630Z,2.50
2018-09-27T14:14:55.029Z,2.23
2018-09-27T14:17:24.154Z,2.47
2018-09-27T14:19:53.765Z,2.17
2018-09-27T14:22:23.246Z,2.00
2018-09-27T14:24:52.752Z,2.37
2018-09-27T14:27:21.862Z,2.10
2018-09-27T14:29:51.138Z,2.20
2018-09-27T14:32:20.579Z,2.60
2018-09-27T14:34:49.704Z,2.67
2018-09-27T14:37:18.877Z,2.40
2018-09-27T14:39:48.046Z,2.30
2018-09-27T14:42:17.532Z,3.60
2018-09-27T14:44:46.673Z,3.33
2018-09-27T14:47:15.869Z,3.40
2018-09-27T14:49:45.034Z,3.67
2018-09-27T14:52:14.241Z,3.70
2018-09-27T14:54:47.314Z,4.87
2018-09-27T14:57:16.457Z,3.77
2018-09-27T14:59:45.597Z,3.90
2018-09-27T15:02:14.899Z,4.43
2018-09-27T15:04:44.463Z,4.43
2018-09-27T15:07:14.454Z,4.57
2018-09-27T15:09:43.724Z,4.07
2018-09-27T15:12:12.830Z,4.23
2018-09-27T15:14:42.103Z,3.67
2018-09-27T15:17:11.187Z,4.03
2018-09-27T15:19:40.378Z,4.20
2018-09-27T15:22:10.018Z,4.00
2018-09-27T15:24:39.146Z,4.37
2018-09-27T15:27:08.339Z,4.73
2018-09-27T15:29:38.666Z,3.93
2018-09-27T15:32:07.870Z,3.40
2018-09-27T15:34:37.066Z,4.20
2018-09-27T15:37:06.361Z,4.87
2018-09-27T15:39:35.610Z,3.93
2018-09-27T15:42:04.742Z,4.13
2018-09-27T15:44:34.626Z,3.60
2018-09-27T15:47:03.769Z,4.27
2018-09-27T15:49:32.982Z,3.63
2018-09-27T15:52:02.139Z,3.40
2018-09-27T15:54:31.886Z,5.10
2018-09-27T15:57:01.034Z,4.43
2018-09-27T15:59:30.198Z,4.23
2018-09-27T16:01:59.327Z,4.40
2018-09-27T16:04:28.442Z,3.93
2018-09-27T16:06:58.797Z,3.83
2018-09-27T16:09:28.282Z,3.83
2018-09-27T16:11:57.575Z,3.93
2018-09-27T16:14:27.097Z,3.97
2018-09-27T16:16:56.563Z,3.60
2018-09-27T16:19:25.885Z,4.30
2018-09-27T16:21:55.661Z,5.23
2018-09-27T16:24:24.881Z,3.50
2018-09-27T16:26:54.001Z,3.60
2018-09-27T16:29:23.170Z,8.57
2018-09-27T16:31:52.538Z,9.13
2018-09-27T16:34:21.702Z,7.73
2018-09-27T16:36:50.899Z,5.70
2018-09-27T16:39:20.078Z,5.90
2018-09-27T16:41:49.875Z,4.47
2018-09-27T16:44:19.020Z,4.70
2018-09-27T16:46:48.199Z,4.93
2018-09-27T16:49:17.331Z,4.70
2018-09-27T16:51:46.496Z,4.87
2018-09-27T16:54:15.716Z,5.43
2018-09-27T16:56:44.937Z,4.80
2018-09-27T16:59:14.085Z,5.17
2018-09-27T17:01:43.274Z,6.07
2018-09-27T17:04:12.551Z,4.73
2018-09-27T17:06:41.722Z,5.47
2018-09-27T17:09:11.558Z,5.93
2018-09-27T17:11:40.708Z,5.73
2018-09-27T17:14:10.403Z,6.13
2018-09-27T17:16:39.614Z,6.03
2018-09-27T17:19:09.317Z,6.03
2018-09-27T17:21:41.809Z,5.40
2018-09-27T17:24:11.461Z,5.70
2018-09-27T17:26:40.612Z,6.20
2018-09-27T17:29:09.822Z,7.10
2018-09-27T17:31:39.346Z,8.63
2018-09-27T17:34:09.178Z,7.47
2018-09-27T17:36:39.118Z,8.87
2018-09-27T17:39:09.375Z,8.10
2018-09-27T17:41:38.862Z,7.57
2018-09-27T17:44:08.632Z,7.77
2018-09-27T17:46:38.474Z,9.27
2018-09-27T17:49:08.503Z,9.97
2018-09-27T17:51:38.309Z,10.07
2018-09-27T17:54:08.350Z,12.30
2018-09-27T17:56:38.146Z,12.80
2018-09-27T17:59:09.648Z,12.33
2018-09-27T18:01:39.241Z,11.20
2018-09-27T18:04:08.438Z,11.40
2018-09-27T18:06:39.282Z,12.10
2018-09-27T18:09:11.174Z,11.47
2018-09-27T18:11:41.388Z,11.70
2018-09-27T18:14:10.694Z,14.93
2018-09-27T18:16:39.675Z,11.93
2018-09-27T18:19:10.153Z,11.37
2018-09-27T18:21:39.693Z,11.47
2018-09-27T18:24:08.829Z,9.77
2018-09-27T18:26:38.584Z,10.70
2018-09-27T18:29:07.718Z,10.90
2018-09-27T18:31:37.332Z,10.00
2018-09-27T18:34:06.425Z,9.30
2018-09-27T18:36:36.277Z,9.87
2018-09-27T18:39:09.566Z,9.10
2018-09-27T18:41:39.657Z,10.23
2018-09-27T18:44:09.586Z,8.67
2018-09-27T18:46:39.290Z,8.77
2018-09-27T18:49:09.465Z,9.80
2018-09-27T18:51:38.914Z,12.37
2018-09-27T18:54:08.725Z,10.80
2018-09-27T18:56:38.559Z,11.77
2018-09-27T18:59:08.050Z,11.03
2018-09-27T19:01:38.911Z,13.10
2018-09-27T19:04:08.154Z,11.80
2018-09-27T19:06:37.342Z,11.20
2018-09-27T19:09:07.561Z,11.83
2018-09-27T19:11:36.846Z,10.97
2018-09-27T19:14:06.079Z,10.83
2018-09-27T19:16:35.331Z,9.67
2018-09-27T19:19:04.551Z,9.20
2018-09-27T19:21:33.709Z,10.70
2018-09-27T19:24:03.542Z,10.40
2018-09-27T19:26:33.133Z,14.47
2018-09-27T19:29:02.670Z,11.37
2018-09-27T19:31:32.691Z,9.60
2018-09-27T19:34:02.478Z,10.57
2018-09-27T19:36:32.310Z,13.87
2018-09-27T19:39:03.415Z,12.83
2018-09-27T19:41:32.878Z,12.50
2018-09-27T19:44:02.907Z,9.57
2018-09-27T19:46:34.585Z,12.73
2018-09-27T19:49:04.343Z,11.30
2018-09-27T19:51:33.515Z,11.90
2018-09-27T19:54:02.742Z,10.70
2018-09-27T19:56:31.921Z,12.10
2018-09-27T19:59:01.447Z,11.63
2018-09-27T20:01:31.339Z,10.33
2018-09-27T20:04:02.272Z,12.10
2018-09-27T20:06:32.141Z,10.60
2018-09-27T20:09:01.283Z,13.00
2018-09-27T20:11:30.846Z,11.50
2018-09-27T20:14:00.001Z,12.53
2018-09-27T20:16:29.265Z,12.77
2018-09-27T20:18:58.418Z,14.57
2018-09-27T20:21:27.631Z,9.40
2018-09-27T20:23:57.019Z,10.50
2018-09-27T20:26:26.207Z,11.80
2018-09-27T20:28:55.399Z,10.93
2018-09-27T20:31:24.644Z,10.10
2018-09-27T20:33:53.787Z,10.60
2018-09-27T20:36:22.958Z,10.83
2018-09-27T20:38:52.418Z,9.70
2018-09-27T20:41:22.202Z,9.90
2018-09-27T20:43:53.350Z,8.53
2018-09-27T20:46:23.262Z,9.97
2018-09-27T20:48:52.963Z,9.07
2018-09-27T20:51:22.681Z,9.40
2018-09-27T20:53:52.033Z,9.20
2018-09-27T20:56:21.668Z,9.83
2018-09-27T20:58:51.085Z,9.10
2018-09-27T21:01:20.718Z,8.80
2018-09-27T21:03:50.647Z,10.03
2018-09-27T21:06:20.617Z,9.40
2018-09-27T21:08:50.043Z,9.00
2018-09-27T21:11:19.526Z,7.53
2018-09-27T21:13:49.430Z,8.90
2018-09-27T21:16:19.301Z,8.93
2018-09-27T21:18:48.626Z,8.90
2018-09-27T21:21:18.658Z,8.20
2018-09-27T21:23:49.101Z,8.07
2018-09-27T21:26:18.981Z,8.20
2018-09-27T21:28:48.790Z,7.83
2018-09-27T21:31:17.951Z,9.17
2018-09-27T21:33:47.161Z,8.47
2018-09-27T21:36:17.018Z,9.30
2018-09-27T21:38:46.260Z,7.50
2018-09-27T21:41:16.024Z,9.70
2018-09-27T21:43:45.977Z,8.40
2018-09-27T21:46:15.869Z,8.60
2018-09-27T21:48:45.038Z,8.70
2018-09-27T21:51:14.309Z,7.07
2018-09-27T21:53:44.140Z,7.80
2018-09-27T21:56:13.440Z,9.63
2018-09-27T21:58:41.650Z,9.10
2018-09-27T22:01:10.823Z,7.60
2018-09-27T22:03:39.194Z,9.70
2018-09-27T22:06:08.357Z,8.80
2018-09-27T22:08:37.509Z,8.57
2018-09-27T22:11:06.793Z,7.23
2018-09-27T22:13:34.702Z,7.97
2018-09-27T22:16:04.223Z,8.70
2018-09-27T22:18:34.106Z,7.53
2018-09-27T22:21:04.007Z,8.07
2018-09-27T22:23:33.929Z,7.77
2018-09-27T22:26:02.997Z,7.40
2018-09-27T22:28:32.127Z,7.83
2018-09-27T22:31:01.723Z,8.50
2018-09-27T22:33:30.871Z,7.57
2018-09-27T22:36:00.039Z,9.43
2018-09-27T22:38:29.165Z,9.37
2018-09-27T22:40:58.290Z,8.87
2018-09-27T22:43:27.447Z,7.70
2018-09-27T22:45:56.650Z,7.90
2018-09-27T22:48:25.834Z,6.57
2018-09-27T22:50:54.953Z,8.73
2018-09-27T22:53:24.070Z,7.60
2018-09-27T22:55:53.230Z,8.40
2018-09-27T22:58:22.397Z,7.67
2018-09-27T23:00:53.047Z,7.23
2018-09-27T23:03:22.742Z,8.30
2018-09-27T23:05:51.894Z,8.67
2018-09-27T23:08:21.049Z,8.80
2018-09-27T23:10:50.306Z,7.33
2018-09-27T23:13:20.498Z,8.10
2018-09-27T23:15:49.789Z,7.77
2018-09-27T23:18:19.106Z,7.87
2018-09-27T23:20:48.453Z,8.10
2018-09-27T23:23:17.862Z,8.47
2018-09-27T23:25:47.438Z,8.93
2018-09-27T23:28:16.997Z,8.90
2018-09-27T23:30:46.643Z,9.30
2018-09-27T23:33:15.837Z,8.57
2018-09-27T23:35:45.657Z,7.37
2018-09-27T23:38:14.966Z,7.90
2018-09-27T23:40:44.682Z,10.17
2018-09-27T23:43:14.493Z,9.67
2018-09-27T23:45:44.150Z,8.37
2018-09-27T23:48:13.295Z,8.13
2018-09-27T23:50:42.426Z,9.63
2018-09-27T23:53:11.669Z,9.20
2018-09-27T23:55:40.798Z,9.20
2018-09-27T23:58:10.094Z,8.43
